createdAt,value
2022-10-11T00:00:11.738Z,1.60
2022-10-11T00:02:38.807Z,1.30
2022-10-11T00:05:06.456Z,1.70
2022-10-11T00:07:33.381Z,1.60
2022-10-11T00:10:00.423Z,1.60
2022-10-11T00:12:27.310Z,1.80
2022-10-11T00:14:54.638Z,1.90
2022-10-11T00:17:21.596Z,1.80
2022-10-11T00:19:49.344Z,1.90
2022-10-11T00:22:16.356Z,1.80
2022-10-11T00:24:43.402Z,1.80
2022-10-11T00:27:10.192Z,1.60
2022-10-11T00:29:38.402Z,1.80
2022-10-11T00:32:05.323Z,1.40
2022-10-11T00:34:33.885Z,2.00
2022-10-11T00:37:01.468Z,1.70
2022-10-11T00:39:29.297Z,2.20
2022-10-11T00:41:56.792Z,1.50
2022-10-11T00:44:25.668Z,1.60
2022-10-11T00:47:13.084Z,1.40
2022-10-11T00:49:45.805Z,1.50
2022-10-11T00:52:21.737Z,1.60
2022-10-11T00:57:20.218Z,1.70
2022-10-11T00:59:49.887Z,1.30
2022-10-11T01:02:16.650Z,1.30
2022-10-11T01:04:43.755Z,1.70
2022-10-11T01:07:10.927Z,1.50
2022-10-11T01:09:37.758Z,1.30
2022-10-11T01:12:07.051Z,1.50
2022-10-11T01:14:47.357Z,1.50
2022-10-11T01:17:55.980Z,1.30
2022-10-11T01:20:46.389Z,1.20
2022-10-11T01:23:34.555Z,1.40
2022-10-11T01:26:10.277Z,1.80
2022-10-11T01:28:50.375Z,1.60
2022-10-11T01:31:17.356Z,1.60
2022-10-11T01:34:01.900Z,1.70
2022-10-11T01:36:41.875Z,1.30
2022-10-11T01:39:13.770Z,1.60
2022-10-11T01:41:44.629Z,1.20
2022-10-11T01:44:11.760Z,1.30
2022-10-11T01:46:39.257Z,1.60
2022-10-11T01:49:06.186Z,1.40
2022-10-11T01:51:41.943Z,1.20
2022-10-11T01:54:11.626Z,1.20
2022-10-11T01:57:01.071Z,1.60
2022-10-11T01:59:30.630Z,1.40
2022-10-11T02:02:09.684Z,1.20
2022-10-11T02:05:20.005Z,1.40
2022-10-11T02:07:49.720Z,1.40
2022-10-11T02:10:34.971Z,1.60
2022-10-11T02:13:16.643Z,1.20
2022-10-11T02:15:43.624Z,1.20
2022-10-11T02:18:13.740Z,1.60
2022-10-11T02:20:40.664Z,1.10
2022-10-11T02:23:13.590Z,1.40
2022-10-11T02:25:41.726Z,1.60
2022-10-11T02:28:11.757Z,1.30
2022-10-11T02:30:39.359Z,1.60
2022-10-11T02:33:06.631Z,1.40
2022-10-11T02:35:36.000Z,1.00
2022-10-11T02:38:11.142Z,1.10
2022-10-11T02:40:41.745Z,1.30
2022-10-11T02:43:28.258Z,1.20
2022-10-11T02:53:35.008Z,1.50
2022-10-11T02:56:02.218Z,1.60
2022-10-11T02:58:29.271Z,1.50
2022-10-11T03:00:56.178Z,1.00
2022-10-11T03:03:23.449Z,1.50
2022-10-11T03:05:50.618Z,1.30
2022-10-11T03:08:18.116Z,1.40
2022-10-11T03:10:45.620Z,1.40
2022-10-11T03:13:18.056Z,1.30
2022-10-11T03:16:01.930Z,1.60
2022-10-11T03:18:31.379Z,1.40
2022-10-11T03:20:59.927Z,1.20
2022-10-11T03:23:26.992Z,1.50
2022-10-11T03:25:53.866Z,1.60
2022-10-11T03:28:20.815Z,1.70
2022-10-11T03:30:48.918Z,1.20
2022-10-11T03:33:17.125Z,1.70
2022-10-11T03:35:45.794Z,1.30
2022-10-11T03:38:21.135Z,1.50
2022-10-11T03:40:48.179Z,1.50
2022-10-11T03:43:15.117Z,1.80
2022-10-11T03:45:44.821Z,1.20
2022-10-11T03:48:12.029Z,1.40
2022-10-11T03:50:39.280Z,1.30
2022-10-11T03:53:06.802Z,1.50
2022-10-11T03:55:34.348Z,1.30
2022-10-11T03:58:01.243Z,1.40
2022-10-11T04:00:28.138Z,1.40
2022-10-11T04:02:55.525Z,1.50
2022-10-11T04:05:25.098Z,1.70
2022-10-11T04:07:53.015Z,1.40
2022-10-11T04:10:22.431Z,1.50
2022-10-11T04:12:49.368Z,1.50
2022-10-11T04:15:17.444Z,1.40
2022-10-11T04:17:44.264Z,1.30
2022-10-11T04:20:11.633Z,1.40
2022-10-11T04:22:38.832Z,1.50
2022-10-11T04:25:06.912Z,1.50
2022-10-11T04:27:33.752Z,1.40
2022-10-11T04:30:00.592Z,1.30
2022-10-11T04:32:28.052Z,1.50
2022-10-11T04:34:54.845Z,1.40
2022-10-11T04:37:21.927Z,1.40
2022-10-11T04:39:49.271Z,1.50
2022-10-11T04:42:16.674Z,1.60
2022-10-11T04:44:43.519Z,1.40
2022-10-11T04:47:10.925Z,1.40
2022-10-11T04:49:37.921Z,1.40
2022-10-11T04:52:04.704Z,1.90
2022-10-11T05:02:31.849Z,3.30
2022-10-11T05:04:58.471Z,5.40
2022-10-11T05:07:25.064Z,7.40
2022-10-11T05:09:51.947Z,7.40
2022-10-11T05:12:19.347Z,10.30
2022-10-11T05:14:45.801Z,11.10
2022-10-11T05:17:15.970Z,16.60
2022-10-11T05:19:43.090Z,14.20
2022-10-11T05:22:10.347Z,9.40
2022-10-11T05:24:37.207Z,6.80
2022-10-11T05:27:03.727Z,5.40
2022-10-11T05:29:30.054Z,5.20
2022-10-11T05:31:56.385Z,5.10
2022-10-11T05:34:22.735Z,3.60
2022-10-11T05:36:48.843Z,2.20
2022-10-11T05:39:15.255Z,2.20
2022-10-11T05:41:43.666Z,1.40
2022-10-11T05:44:09.795Z,1.80
2022-10-11T05:46:36.532Z,3.80
2022-10-11T05:49:02.937Z,6.70
2022-10-11T05:51:29.282Z,10.10
2022-10-11T05:53:56.292Z,18.90
2022-10-11T05:56:23.741Z,14.70
2022-10-11T05:58:50.357Z,11.10
2022-10-11T06:01:24.606Z,9.60
2022-10-11T06:03:51.172Z,5.70
2022-10-11T06:06:17.484Z,4.40
2022-10-11T06:08:44.024Z,4.50
2022-10-11T06:11:15.503Z,7.00
2022-10-11T06:13:43.752Z,7.30
2022-10-11T06:16:10.474Z,4.60
2022-10-11T06:18:37.255Z,1.90
2022-10-11T06:21:03.741Z,1.90
2022-10-11T06:23:30.001Z,1.40
2022-10-11T06:25:57.151Z,0.80
2022-10-11T06:28:23.324Z,1.20
2022-10-11T06:30:49.867Z,1.00
2022-10-11T06:33:16.547Z,0.90
2022-10-11T06:35:42.679Z,1.10
2022-10-11T06:38:09.082Z,1.00
2022-10-11T06:40:35.733Z,0.70
2022-10-11T06:43:01.859Z,0.80
2022-10-11T06:45:28.065Z,0.60
2022-10-11T06:47:54.623Z,0.70
2022-10-11T06:50:35.111Z,0.70
2022-10-11T06:53:08.052Z,0.90
2022-10-11T06:55:34.600Z,1.00
2022-10-11T06:58:00.829Z,0.60
2022-10-11T07:00:27.331Z,0.70
2022-10-11T07:02:53.537Z,1.00
2022-10-11T07:05:19.831Z,0.60
2022-10-11T07:07:47.693Z,0.60
2022-10-11T07:10:13.886Z,0.70
2022-10-11T07:12:44.034Z,1.30
2022-10-11T07:15:11.585Z,1.00
2022-10-11T07:17:41.630Z,0.90
2022-10-11T07:20:08.966Z,0.70
2022-10-11T07:22:36.408Z,0.70
2022-10-11T07:25:02.906Z,0.70
2022-10-11T07:27:29.242Z,0.60
2022-10-11T07:29:59.212Z,0.60
2022-10-11T07:32:25.417Z,0.60
2022-10-11T07:34:51.935Z,0.60
2022-10-11T07:37:18.359Z,0.60
2022-10-11T07:39:44.530Z,1.10
2022-10-11T07:42:11.279Z,0.60
2022-10-11T07:44:37.740Z,0.90
2022-10-11T07:47:08.952Z,6.70
2022-10-11T07:49:37.397Z,1.40
2022-10-11T07:52:03.995Z,0.80
2022-10-11T07:54:30.256Z,1.70
2022-10-11T07:56:56.362Z,1.20
2022-10-11T07:59:23.099Z,3.40
2022-10-11T08:01:49.351Z,8.00
2022-10-11T08:04:15.820Z,3.70
2022-10-11T08:06:42.739Z,1.30
2022-10-11T08:09:09.732Z,0.70
2022-10-11T08:11:37.367Z,0.70
2022-10-11T08:14:08.067Z,0.70
2022-10-11T08:16:35.371Z,0.60
2022-10-11T08:19:02.663Z,0.40
2022-10-11T08:21:29.742Z,0.80
2022-10-11T08:23:56.206Z,0.30
2022-10-11T08:26:22.991Z,0.30
2022-10-11T08:41:06.403Z,2.20
2022-10-11T08:43:45.565Z,1.00
2022-10-11T08:46:11.873Z,0.50
2022-10-11T08:48:45.880Z,0.70
2022-10-11T08:51:19.960Z,0.70
2022-10-11T08:54:19.507Z,0.80
2022-10-11T08:56:47.090Z,4.60
2022-10-11T08:59:26.512Z,1.20
2022-10-11T09:01:59.648Z,7.00
2022-10-11T09:04:26.552Z,7.00
2022-10-11T09:07:05.167Z,1.90
2022-10-11T09:09:49.810Z,1.00
2022-10-11T09:12:33.499Z,0.90
2022-10-11T09:15:20.266Z,1.00
2022-10-11T09:18:21.702Z,1.10
2022-10-11T09:20:52.410Z,0.90
2022-10-11T09:23:44.650Z,0.70
2022-10-11T09:26:18.832Z,0.70
2022-10-11T09:29:11.424Z,3.20
2022-10-11T09:31:40.541Z,0.70
2022-10-11T09:34:12.588Z,0.40
2022-10-11T09:37:01.592Z,0.40
2022-10-11T09:39:35.754Z,0.60
2022-10-11T09:42:02.927Z,0.60
2022-10-11T09:44:33.397Z,0.30
2022-10-11T09:47:00.473Z,0.50
2022-10-11T09:49:37.506Z,0.60
2022-10-11T09:52:05.425Z,0.70
2022-10-11T10:27:21.370Z,0.60
2022-10-11T10:30:08.510Z,1.70
2022-10-11T10:33:17.067Z,1.50
2022-10-11T10:35:48.455Z,0.60
2022-10-11T10:38:17.552Z,0.60
2022-10-11T10:40:47.869Z,0.60
2022-10-11T10:43:20.560Z,0.60
2022-10-11T10:45:59.324Z,0.70
2022-10-11T10:49:28.753Z,0.70
2022-10-11T10:52:10.821Z,0.50
2022-10-11T10:54:56.621Z,15.80
2022-10-11T10:57:26.336Z,15.60
2022-10-11T11:00:19.582Z,3.20
2022-10-11T11:03:01.168Z,0.90
2022-10-11T11:05:34.010Z,1.00
2022-10-11T11:08:08.783Z,0.80
2022-10-11T11:10:56.143Z,0.80
2022-10-11T11:13:32.975Z,0.50
2022-10-11T11:16:23.626Z,0.70
2022-10-11T11:19:12.656Z,0.70
2022-10-11T11:21:42.576Z,0.60
2022-10-11T11:24:27.883Z,0.70
2022-10-11T11:27:27.384Z,0.60
2022-10-11T11:30:05.244Z,0.40
2022-10-11T11:33:07.732Z,0.50
2022-10-11T11:35:39.625Z,0.60
2022-10-11T11:38:46.864Z,0.60
2022-10-11T11:41:23.160Z,0.60
2022-10-11T11:44:01.284Z,0.80
2022-10-11T11:46:36.177Z,0.90
2022-10-11T11:49:10.820Z,0.70
2022-10-11T11:51:42.987Z,0.80
2022-10-11T11:54:37.286Z,1.00
2022-10-11T11:57:28.691Z,0.70
2022-10-11T12:00:14.773Z,0.70
2022-10-11T12:03:03.411Z,0.70
2022-10-11T12:05:32.708Z,0.80
2022-10-11T12:08:08.890Z,1.00
2022-10-11T12:10:39.664Z,0.80
2022-10-11T12:13:32.190Z,0.70
2022-10-11T12:16:16.327Z,0.80
2022-10-11T12:19:02.907Z,0.80
2022-10-11T12:21:34.678Z,0.60
2022-10-11T12:24:15.515Z,0.60
2022-10-11T12:27:03.252Z,0.70
2022-10-11T12:29:49.063Z,0.80
2022-10-11T12:32:38.651Z,0.70
2022-10-11T12:35:34.686Z,0.90
2022-10-11T12:38:22.524Z,0.70
2022-10-11T12:40:54.788Z,0.80
2022-10-11T12:43:33.309Z,0.70
2022-10-11T12:46:28.340Z,1.00
2022-10-11T12:49:04.160Z,1.20
2022-10-11T12:52:17.837Z,1.00
2022-10-11T12:55:04.486Z,0.90
2022-10-11T12:57:45.910Z,1.20
2022-10-11T13:00:26.241Z,1.20
2022-10-11T13:02:53.537Z,1.20
2022-10-11T13:05:24.490Z,0.90
2022-10-11T13:07:52.802Z,1.10
2022-10-11T13:10:24.539Z,0.90
2022-10-11T13:12:51.674Z,0.90
2022-10-11T13:15:19.687Z,0.90
2022-10-11T13:17:48.773Z,0.80
2022-10-11T13:20:15.943Z,0.80
2022-10-11T13:22:47.270Z,1.00
2022-10-11T13:25:22.208Z,0.70
2022-10-11T13:27:50.229Z,0.60
2022-10-11T13:30:19.871Z,0.70
2022-10-11T13:32:46.949Z,0.80
2022-10-11T15:56:29.272Z,53.10
2022-10-11T15:59:00.006Z,52.80
2022-10-11T16:01:27.348Z,52.60
2022-10-11T16:03:54.105Z,53.80
2022-10-11T16:06:21.777Z,45.90
2022-10-11T16:08:48.649Z,40.00
2022-10-11T16:11:15.785Z,31.00
2022-10-11T16:13:43.282Z,27.60
2022-10-11T16:16:11.358Z,25.00
2022-10-11T16:18:39.736Z,27.10
2022-10-11T16:21:09.264Z,28.90
2022-10-11T16:23:36.652Z,31.00
2022-10-11T16:26:05.552Z,29.60
2022-10-11T16:28:33.747Z,25.10
2022-10-11T16:31:06.490Z,22.30
2022-10-11T16:33:33.546Z,23.60
2022-10-11T16:36:20.485Z,27.80
2022-10-11T16:38:47.378Z,29.40
2022-10-11T16:41:14.223Z,27.30
2022-10-11T16:43:41.256Z,26.50
2022-10-11T16:46:09.074Z,27.80
2022-10-11T16:48:36.207Z,25.80
2022-10-11T16:51:07.839Z,25.70
2022-10-11T16:53:35.670Z,25.30
2022-10-11T16:56:09.740Z,27.10
2022-10-11T16:58:36.862Z,27.20
2022-10-11T17:01:08.188Z,27.00
2022-10-11T17:03:35.469Z,28.80
2022-10-11T17:06:04.994Z,31.00
2022-10-11T17:08:32.033Z,31.70
2022-10-11T17:10:59.885Z,30.50
2022-10-11T17:13:28.069Z,31.70
2022-10-11T17:15:55.110Z,33.50
2022-10-11T20:42:54.209Z,5.90
2022-10-11T20:45:21.131Z,6.40
2022-10-11T20:47:47.869Z,3.70
2022-10-11T20:50:16.672Z,2.90
2022-10-11T20:52:46.428Z,2.10
2022-10-11T20:55:13.732Z,3.00
2022-10-11T20:57:40.893Z,2.20
2022-10-11T21:00:08.940Z,2.60
2022-10-11T21:02:36.346Z,1.90
2022-10-11T21:05:03.470Z,2.60
2022-10-11T21:07:30.729Z,2.20
2022-10-11T21:09:57.865Z,2.30
2022-10-11T21:12:25.106Z,2.10
2022-10-11T21:14:52.284Z,2.20
2022-10-11T21:17:19.383Z,1.50
2022-10-11T21:19:46.452Z,1.30
2022-10-11T21:22:13.548Z,1.60
2022-10-11T21:24:40.362Z,1.50
2022-10-11T21:27:07.236Z,1.30
2022-10-11T21:29:34.804Z,1.50
2022-10-11T21:32:01.671Z,1.40
2022-10-11T21:34:28.827Z,1.30
2022-10-11T21:36:55.751Z,1.30
2022-10-11T21:39:25.085Z,1.40
2022-10-11T21:41:52.052Z,1.50
2022-10-11T21:44:19.142Z,1.40
2022-10-11T21:49:33.330Z,1.90
2022-10-11T21:52:00.056Z,2.10
2022-10-11T21:54:27.228Z,1.70
2022-10-11T21:56:54.482Z,2.00
2022-10-11T21:59:21.338Z,1.80
2022-10-11T22:01:48.227Z,2.00
2022-10-11T22:04:15.084Z,2.00
2022-10-11T22:06:41.941Z,1.90
2022-10-11T22:09:08.848Z,1.90
2022-10-11T22:11:36.599Z,1.80
2022-10-11T22:14:03.693Z,1.90
2022-10-11T22:16:30.741Z,1.60
2022-10-11T22:18:58.047Z,1.60
2022-10-11T22:21:25.133Z,1.50
2022-10-11T22:23:53.527Z,2.00
2022-10-11T22:26:30.085Z,1.70
2022-10-11T22:28:58.231Z,2.10
2022-10-11T22:31:25.394Z,2.10
2022-10-11T22:39:57.013Z,2.20
2022-10-11T22:42:27.579Z,1.90
2022-10-11T22:44:54.743Z,2.20
2022-10-11T22:47:21.571Z,2.30
2022-10-11T22:49:48.742Z,2.10
2022-10-11T22:52:15.700Z,2.20
2022-10-11T22:54:42.768Z,2.50
2022-10-11T22:57:10.189Z,2.00
2022-10-11T22:59:37.596Z,2.10
2022-10-11T23:02:04.442Z,2.70
2022-10-11T23:04:31.549Z,2.20
2022-10-11T23:07:02.571Z,2.00
2022-10-11T23:09:31.903Z,2.10
2022-10-11T23:11:59.692Z,2.00
2022-10-11T23:14:26.387Z,1.80
2022-10-11T23:16:54.791Z,1.70
2022-10-11T23:19:21.747Z,1.80
2022-10-11T23:21:49.116Z,1.60
2022-10-11T23:24:18.345Z,1.80
2022-10-11T23:26:46.367Z,2.10
2022-10-11T23:29:13.754Z,2.30
2022-10-11T23:31:40.887Z,2.30
2022-10-11T23:34:07.782Z,2.30
2022-10-11T23:36:34.622Z,2.20
2022-10-11T23:39:01.701Z,2.30
2022-10-11T23:41:29.478Z,2.10
2022-10-11T23:43:56.951Z,2.40
2022-10-11T23:46:23.867Z,2.10
2022-10-11T23:48:50.709Z,2.30
2022-10-11T23:51:17.834Z,2.20
2022-10-11T23:53:45.166Z,2.20
2022-10-11T23:56:12.132Z,2.40
2022-10-11T23:58:39.094Z,2.50
